Time;durP1;ratioP1;P1;durP2;ratioP2;P2;SDS_P1;SDS_P2;PMS_P1;PMS_P2;Temp;Humidity;BMP_temperature;BMP_pressure;BME280_temperature;BME280_humidity;BME280_pressure;Samples;Min_cycle;Max_cycle;Signal;HPM_P1;HPM_P2
2022/02/15 00:01:50;;;;;;;;;;;21.30;30.70;;;;;;484022;246;2363;-39
2022/02/15 00:03:52;;;;;;;;;;;21.30;30.70;;;;;;483945;246;1126;-39
2022/02/15 00:05:53;;;;;;;;;;;21.30;30.70;;;;;;484351;246;1153;-39
2022/02/15 00:07:54;;;;;;;;;;;21.30;30.70;;;;;;484136;246;1372;-39
2022/02/15 00:09:56;;;;;;;;;;;21.30;30.70;;;;;;484113;246;1220;-39
2022/02/15 00:11:57;;;;;;;;;;;21.30;30.70;;;;;;484236;246;1449;-40
2022/02/15 00:13:58;;;;;;;;;;;21.30;30.70;;;;;;483979;246;1068;-39
2022/02/15 00:16:00;;;;;;;;;;;21.30;30.70;;;;;;483952;246;1171;-39
2022/02/15 00:18:01;;;;;;;;;;;21.30;30.70;;;;;;483982;246;2196;-39
2022/02/15 00:20:02;;;;;;;;;;;21.30;30.70;;;;;;483995;246;1354;-39
2022/02/15 00:22:04;;;;;;;;;;;21.20;30.80;;;;;;483955;246;1247;-39
2022/02/15 00:24:05;;;;;;;;;;;21.20;30.80;;;;;;484433;246;1196;-39
2022/02/15 00:26:06;;;;;;;;;;;21.30;30.90;;;;;;484018;246;1383;-39
2022/02/15 00:28:08;;;;;;;;;;;21.20;30.80;;;;;;484294;246;1179;-39
2022/02/15 00:30:09;;;;;;;;;;;21.20;30.80;;;;;;484499;246;1045;-39
2022/02/15 00:32:10;;;;;;;;;;;21.30;30.80;;;;;;484112;246;1207;-39
2022/02/15 00:34:12;;;;;;;;;;;21.30;30.80;;;;;;483996;246;1242;-39
2022/02/15 00:36:15;;;;;;;;;;;21.30;30.80;;;;;;484136;243;1203;-39
2022/02/15 00:38:14;;;;;;;;;;;21.20;30.80;;;;;;483977;246;2286;-39
2022/02/15 00:40:16;;;;;;;;;;;21.30;30.90;;;;;;483983;246;1032;-39
2022/02/15 00:42:17;;;;;;;;;;;21.20;30.90;;;;;;484055;246;1200;-39
2022/02/15 00:44:18;;;;;;;;;;;21.20;30.90;;;;;;484039;246;1067;-39
2022/02/15 00:46:20;;;;;;;;;;;21.30;30.90;;;;;;484353;246;1397;-39
2022/02/15 00:48:21;;;;;;;;;;;21.30;30.80;;;;;;483987;246;1084;-39
2022/02/15 00:50:22;;;;;;;;;;;21.30;30.80;;;;;;484385;246;1081;-39
2022/02/15 00:52:23;;;;;;;;;;;21.20;30.80;;;;;;484153;246;1296;-39
2022/02/15 00:54:25;;;;;;;;;;;21.20;30.80;;;;;;484414;246;1120;-39
2022/02/15 00:56:26;;;;;;;;;;;21.20;30.80;;;;;;484094;246;1540;-39
2022/02/15 00:58:27;;;;;;;;;;;21.30;30.80;;;;;;484084;246;2188;-39
2022/02/15 01:00:29;;;;;;;;;;;21.30;30.80;;;;;;484002;246;1192;-39
2022/02/15 01:02:30;;;;;;;;;;;21.30;30.80;;;;;;484042;246;1204;-39
2022/02/15 01:04:31;;;;;;;;;;;21.30;30.80;;;;;;484044;246;1036;-39
2022/02/15 01:06:33;;;;;;;;;;;21.30;30.90;;;;;;484388;246;1629;-39
2022/02/15 01:08:34;;;;;;;;;;;21.30;30.90;;;;;;484228;246;1080;-39
2022/02/15 01:10:35;;;;;;;;;;;21.30;30.80;;;;;;484474;246;1219;-39
2022/02/15 01:12:37;;;;;;;;;;;21.30;30.80;;;;;;483922;246;1189;-39
2022/02/15 01:14:38;;;;;;;;;;;21.40;30.80;;;;;;484009;246;1020;-39
2022/02/15 01:16:39;;;;;;;;;;;21.30;30.80;;;;;;483977;246;1250;-39
2022/02/15 01:18:41;;;;;;;;;;;21.30;30.70;;;;;;484444;246;2117;-39
2022/02/15 01:20:42;;;;;;;;;;;21.30;30.70;;;;;;484443;246;1027;-39
2022/02/15 01:22:43;;;;;;;;;;;21.30;30.90;;;;;;484177;246;1196;-39
2022/02/15 01:24:44;;;;;;;;;;;21.30;31.00;;;;;;484312;246;1145;-39
2022/02/15 01:26:46;;;;;;;;;;;21.20;30.90;;;;;;483998;246;1128;-39
2022/02/15 01:28:47;;;;;;;;;;;21.30;30.90;;;;;;484121;246;1056;-39
2022/02/15 01:30:49;;;;;;;;;;;21.30;30.90;;;;;;484003;246;1170;-39
2022/02/15 01:32:50;;;;;;;;;;;21.30;30.90;;;;;;484040;246;1477;-39
2022/02/15 01:34:51;;;;;;;;;;;21.20;31.00;;;;;;484008;246;1158;-39
2022/02/15 01:36:52;;;;;;;;;;;21.30;31.00;;;;;;484370;246;1302;-39
2022/02/15 01:41:01;;;;;;;;;;;21.20;31.00;;;;;;483031;242;3515;-40
2022/02/15 01:43:02;;;;;;;;;;;21.20;30.90;;;;;;484445;246;1192;-39
2022/02/15 01:45:04;;;;;;;;;;;21.20;31.00;;;;;;484388;246;1055;-39
2022/02/15 01:47:05;;;;;;;;;;;21.20;31.00;;;;;;483967;246;1227;-39
2022/02/15 01:49:06;;;;;;;;;;;21.20;31.00;;;;;;484492;246;1054;-39
2022/02/15 01:51:07;;;;;;;;;;;21.30;30.90;;;;;;484152;246;1208;-39
2022/02/15 01:53:09;;;;;;;;;;;21.30;31.00;;;;;;484452;246;1179;-39
2022/02/15 01:55:10;;;;;;;;;;;21.20;31.00;;;;;;484409;246;1309;-39
2022/02/15 01:57:12;;;;;;;;;;;21.20;31.00;;;;;;483895;246;1285;-39
2022/02/15 01:59:13;;;;;;;;;;;21.20;31.00;;;;;;484360;246;2132;-39
2022/02/15 02:01:14;;;;;;;;;;;21.20;31.00;;;;;;484401;246;1456;-39
2022/02/15 02:03:15;;;;;;;;;;;21.20;31.00;;;;;;484184;246;1103;-39
2022/02/15 02:07:36;;;;;;;;;;;21.30;31.00;;;;;;484075;246;1476;-39
2022/02/15 02:09:38;;;;;;;;;;;21.30;30.90;;;;;;484473;246;1070;-39
2022/02/15 02:11:39;;;;;;;;;;;21.30;30.90;;;;;;484031;246;1244;-39
2022/02/15 02:13:40;;;;;;;;;;;21.30;30.90;;;;;;484443;246;1275;-39
2022/02/15 02:15:41;;;;;;;;;;;21.30;31.00;;;;;;483994;246;1134;-39
2022/02/15 02:17:43;;;;;;;;;;;21.30;30.90;;;;;;484468;246;1221;-39
2022/02/15 02:19:44;;;;;;;;;;;21.30;31.00;;;;;;484492;246;2120;-39
2022/02/15 02:21:45;;;;;;;;;;;21.30;30.90;;;;;;484048;242;1379;-39
2022/02/15 02:23:47;;;;;;;;;;;21.30;31.00;;;;;;484469;246;1110;-39
2022/02/15 02:25:48;;;;;;;;;;;21.30;31.00;;;;;;484101;246;1273;-39
2022/02/15 02:27:50;;;;;;;;;;;21.30;31.00;;;;;;484452;246;1186;-39
2022/02/15 02:29:51;;;;;;;;;;;21.30;31.00;;;;;;484498;246;1063;-39
2022/02/15 02:31:52;;;;;;;;;;;21.30;30.90;;;;;;484138;243;1202;-39
2022/02/15 02:33:53;;;;;;;;;;;21.30;31.00;;;;;;484423;246;1270;-39
2022/02/15 02:35:55;;;;;;;;;;;21.30;30.90;;;;;;483992;246;1195;-39
2022/02/15 02:37:56;;;;;;;;;;;21.30;30.90;;;;;;484452;246;1300;-39
2022/02/15 02:39:57;;;;;;;;;;;21.30;31.00;;;;;;484035;246;2196;-39
2022/02/15 02:41:59;;;;;;;;;;;21.30;31.10;;;;;;484085;246;1314;-39
2022/02/15 02:44:00;;;;;;;;;;;21.30;31.00;;;;;;484005;246;1077;-39
2022/02/15 02:46:01;;;;;;;;;;;21.30;31.00;;;;;;484444;246;1287;-39
2022/02/15 02:48:03;;;;;;;;;;;21.20;31.00;;;;;;484408;246;1155;-39
2022/02/15 02:50:04;;;;;;;;;;;21.30;31.00;;;;;;484248;246;1112;-39
2022/02/15 02:52:05;;;;;;;;;;;21.20;31.00;;;;;;484406;246;1331;-39
2022/02/15 02:54:07;;;;;;;;;;;21.30;31.10;;;;;;484501;246;1064;-39
2022/02/15 02:56:09;;;;;;;;;;;21.20;31.10;;;;;;484322;246;1435;-39
2022/02/15 02:58:09;;;;;;;;;;;21.20;31.10;;;;;;484326;246;2343;-40
2022/02/15 03:00:10;;;;;;;;;;;21.20;31.10;;;;;;484008;246;2188;-39
2022/02/15 03:02:12;;;;;;;;;;;21.20;31.20;;;;;;483972;246;1297;-39
2022/02/15 03:04:13;;;;;;;;;;;21.20;31.10;;;;;;484018;246;1224;-39
2022/02/15 03:06:15;;;;;;;;;;;21.30;31.10;;;;;;484449;246;1153;-39
2022/02/15 03:08:16;;;;;;;;;;;21.20;31.00;;;;;;484168;246;1174;-39
2022/02/15 03:10:17;;;;;;;;;;;21.30;31.10;;;;;;484029;246;1255;-39
2022/02/15 03:12:18;;;;;;;;;;;21.20;31.10;;;;;;484145;246;1214;-39
2022/02/15 03:14:20;;;;;;;;;;;21.20;31.10;;;;;;484514;246;1309;-39
2022/02/15 03:16:23;;;;;;;;;;;21.20;31.10;;;;;;484015;243;1225;-39
2022/02/15 03:18:23;;;;;;;;;;;21.30;31.10;;;;;;484385;246;2179;-39
2022/02/15 03:20:24;;;;;;;;;;;21.20;31.10;;;;;;484397;246;2128;-39
2022/02/15 03:22:26;;;;;;;;;;;21.30;31.10;;;;;;484469;246;1212;-39
2022/02/15 03:24:27;;;;;;;;;;;21.20;31.10;;;;;;484321;246;1288;-39
2022/02/15 03:26:28;;;;;;;;;;;21.30;31.10;;;;;;484391;246;1182;-39
2022/02/15 03:28:29;;;;;;;;;;;21.30;31.10;;;;;;484455;246;1158;-39
2022/02/15 03:30:31;;;;;;;;;;;21.30;31.10;;;;;;484322;246;1105;-39
2022/02/15 03:32:32;;;;;;;;;;;21.30;31.10;;;;;;483985;246;1208;-39
2022/02/15 03:34:33;;;;;;;;;;;21.30;31.10;;;;;;484470;246;1095;-39
2022/02/15 03:36:35;;;;;;;;;;;21.30;31.00;;;;;;484458;246;1190;-39
2022/02/15 03:38:36;;;;;;;;;;;21.30;31.00;;;;;;484432;246;1187;-39
2022/02/15 03:43:16;;;;;;;;;;;21.40;31.00;;;;;;459026;258;1296;-39
2022/02/15 03:45:17;;;;;;;;;;;21.30;31.00;;;;;;444916;268;1167;-39
2022/02/15 03:47:19;;;;;;;;;;;21.30;31.00;;;;;;444504;268;1449;-39
2022/02/15 03:49:20;;;;;;;;;;;21.30;31.00;;;;;;482257;245;1240;-39
2022/02/15 03:51:21;;;;;;;;;;;21.30;31.00;;;;;;484441;246;1294;-39
2022/02/15 03:53:23;;;;;;;;;;;21.30;31.10;;;;;;484474;246;1028;-39
2022/02/15 03:55:24;;;;;;;;;;;21.20;31.20;;;;;;484053;246;1092;-39
2022/02/15 03:57:25;;;;;;;;;;;21.30;31.20;;;;;;484034;246;1468;-39
2022/02/15 03:59:27;;;;;;;;;;;21.20;31.20;;;;;;484486;246;2215;-39
2022/02/15 04:01:28;;;;;;;;;;;21.30;31.10;;;;;;484459;246;1265;-39
2022/02/15 04:03:29;;;;;;;;;;;21.30;31.20;;;;;;484484;246;1274;-39
2022/02/15 04:05:31;;;;;;;;;;;21.30;31.20;;;;;;484527;246;1122;-39
2022/02/15 04:07:32;;;;;;;;;;;21.30;31.10;;;;;;484086;246;1558;-39
2022/02/15 04:09:33;;;;;;;;;;;21.30;31.10;;;;;;484021;246;1192;-39
2022/02/15 04:11:35;;;;;;;;;;;21.30;31.10;;;;;;483973;246;1318;-39
2022/02/15 04:13:36;;;;;;;;;;;21.30;31.10;;;;;;484096;246;1238;-39
2022/02/15 04:15:38;;;;;;;;;;;21.30;31.10;;;;;;484034;246;1182;-39
2022/02/15 04:17:39;;;;;;;;;;;21.30;31.10;;;;;;484049;246;1631;-39
2022/02/15 04:19:41;;;;;;;;;;;21.30;31.10;;;;;;484472;246;2120;-39
2022/02/15 04:21:42;;;;;;;;;;;21.30;31.20;;;;;;484059;246;1624;-39
2022/02/15 04:23:43;;;;;;;;;;;21.30;31.20;;;;;;484456;246;1226;-39
2022/02/15 04:25:45;;;;;;;;;;;21.30;31.20;;;;;;484085;246;1112;-39
2022/02/15 04:27:46;;;;;;;;;;;21.30;31.20;;;;;;484058;246;1175;-39
2022/02/15 04:29:47;;;;;;;;;;;21.30;31.10;;;;;;484516;246;1167;-39
2022/02/15 04:31:48;;;;;;;;;;;21.20;31.10;;;;;;484418;246;1149;-39
2022/02/15 04:33:50;;;;;;;;;;;21.20;31.10;;;;;;484058;246;1063;-39
2022/02/15 04:35:51;;;;;;;;;;;21.20;31.20;;;;;;484205;246;1188;-39
2022/02/15 04:37:52;;;;;;;;;;;21.30;31.20;;;;;;484199;246;1165;-39
2022/02/15 04:39:54;;;;;;;;;;;21.30;31.20;;;;;;484007;246;2184;-39
2022/02/15 04:41:55;;;;;;;;;;;21.30;31.10;;;;;;484127;246;1671;-39
2022/02/15 04:43:56;;;;;;;;;;;21.30;31.10;;;;;;484032;246;1239;-39
2022/02/15 04:45:58;;;;;;;;;;;21.30;31.20;;;;;;484258;246;1228;-39
2022/02/15 04:47:59;;;;;;;;;;;21.30;31.20;;;;;;483946;246;1174;-39
2022/02/15 04:50:00;;;;;;;;;;;21.30;31.20;;;;;;484464;246;1164;-39
2022/02/15 04:52:02;;;;;;;;;;;21.30;31.20;;;;;;484409;246;1188;-39
2022/02/15 04:54:03;;;;;;;;;;;21.30;31.20;;;;;;484028;246;1228;-39
2022/02/15 04:56:04;;;;;;;;;;;21.30;31.20;;;;;;484187;246;1240;-39
2022/02/15 04:58:06;;;;;;;;;;;21.30;31.20;;;;;;484321;246;1248;-39
2022/02/15 05:00:07;;;;;;;;;;;21.30;31.10;;;;;;484469;246;2121;-39
2022/02/15 05:02:10;;;;;;;;;;;21.30;31.20;;;;;;484314;246;1291;-39
2022/02/15 05:04:48;;;;;;;;;;;21.30;31.20;;;;;;484369;246;2523;-39
2022/02/15 05:06:11;;;;;;;;;;;21.30;31.20;;;;;;482935;246;2209;-39
2022/02/15 05:08:12;;;;;;;;;;;21.30;31.20;;;;;;484401;246;1618;-39
2022/02/15 05:10:13;;;;;;;;;;;21.30;31.20;;;;;;483958;246;1213;-39
2022/02/15 05:12:15;;;;;;;;;;;21.30;31.20;;;;;;483901;246;1175;-39
2022/02/15 05:14:16;;;;;;;;;;;21.30;31.30;;;;;;484017;246;1227;-39
2022/02/15 05:16:17;;;;;;;;;;;21.30;31.30;;;;;;483932;246;1326;-39
2022/02/15 05:18:19;;;;;;;;;;;21.30;31.30;;;;;;484343;246;1199;-39
2022/02/15 05:20:20;;;;;;;;;;;21.30;31.20;;;;;;484122;246;2240;-39
2022/02/15 05:22:21;;;;;;;;;;;21.30;31.20;;;;;;483827;246;1103;-39
2022/02/15 05:24:23;;;;;;;;;;;21.30;31.20;;;;;;484091;246;1081;-39
2022/02/15 05:26:24;;;;;;;;;;;21.30;31.20;;;;;;483983;246;1331;-39
2022/02/15 05:28:26;;;;;;;;;;;21.20;31.20;;;;;;483885;246;1097;-39
2022/02/15 05:30:27;;;;;;;;;;;21.30;31.30;;;;;;484411;246;1068;-39
2022/02/15 05:32:28;;;;;;;;;;;21.20;31.30;;;;;;484005;246;1329;-39
2022/02/15 05:34:30;;;;;;;;;;;21.30;31.20;;;;;;484390;246;1339;-39
2022/02/15 05:36:33;;;;;;;;;;;21.30;31.20;;;;;;483930;246;1310;-39
2022/02/15 05:38:32;;;;;;;;;;;21.30;31.20;;;;;;483747;246;2161;-39
2022/02/15 05:40:34;;;;;;;;;;;21.30;31.20;;;;;;484344;246;2128;-39
2022/02/15 05:42:35;;;;;;;;;;;21.30;31.20;;;;;;483963;246;1227;-39
2022/02/15 05:44:36;;;;;;;;;;;21.30;31.20;;;;;;483996;246;1188;-39
2022/02/15 05:46:38;;;;;;;;;;;21.30;31.20;;;;;;483876;246;1282;-39
2022/02/15 05:48:39;;;;;;;;;;;21.30;31.30;;;;;;483954;246;1188;-39
2022/02/15 05:50:53;;;;;;;;;;;21.30;31.30;;;;;;483785;246;1099;-39
2022/02/15 05:52:54;;;;;;;;;;;21.30;31.20;;;;;;483922;246;1164;-39
2022/02/15 05:54:56;;;;;;;;;;;21.30;31.20;;;;;;483734;246;1108;-39
2022/02/15 05:56:57;;;;;;;;;;;21.30;31.20;;;;;;483794;246;1418;-39
2022/02/15 05:58:59;;;;;;;;;;;21.30;31.20;;;;;;483949;246;1177;-40
2022/02/15 06:01:00;;;;;;;;;;;21.30;31.30;;;;;;483775;246;2173;-39
2022/02/15 06:04:09;;;;;;;;;;;21.30;31.20;;;;;;483910;246;1073;-39
2022/02/15 06:05:03;;;;;;;;;;;21.30;31.20;;;;;;482775;246;1815;-39
2022/02/15 06:07:05;;;;;;;;;;;21.30;31.30;;;;;;483765;246;1189;-39
2022/02/15 06:09:06;;;;;;;;;;;21.30;31.30;;;;;;484034;246;1087;-39
2022/02/15 06:11:07;;;;;;;;;;;21.20;31.30;;;;;;483626;246;1132;-39
2022/02/15 06:13:09;;;;;;;;;;;21.30;31.30;;;;;;484172;246;1055;-39
2022/02/15 06:15:11;;;;;;;;;;;21.30;31.20;;;;;;483737;246;1204;-39
2022/02/15 06:17:11;;;;;;;;;;;21.30;31.20;;;;;;483982;246;2096;-39
2022/02/15 06:19:13;;;;;;;;;;;21.30;31.30;;;;;;483681;246;1109;-39
2022/02/15 06:21:14;;;;;;;;;;;21.30;31.30;;;;;;483680;246;2125;-39
2022/02/15 06:23:15;;;;;;;;;;;21.30;31.30;;;;;;483702;246;1094;-39
2022/02/15 06:25:17;;;;;;;;;;;21.30;31.20;;;;;;484019;246;1067;-39
2022/02/15 06:27:18;;;;;;;;;;;21.30;31.30;;;;;;483725;246;1365;-39
2022/02/15 06:29:19;;;;;;;;;;;21.30;31.30;;;;;;483769;246;1222;-39
2022/02/15 06:31:21;;;;;;;;;;;21.30;31.30;;;;;;483554;246;1186;-40
2022/02/15 06:33:22;;;;;;;;;;;21.30;31.30;;;;;;483701;246;1082;-39
2022/02/15 06:35:23;;;;;;;;;;;21.20;31.40;;;;;;483749;246;1079;-39
2022/02/15 06:37:25;;;;;;;;;;;21.30;31.30;;;;;;483678;246;1210;-39
2022/02/15 06:39:26;;;;;;;;;;;21.20;31.30;;;;;;484014;246;1073;-39
2022/02/15 06:41:27;;;;;;;;;;;21.30;31.40;;;;;;483597;246;2204;-39
2022/02/15 06:43:28;;;;;;;;;;;21.30;31.40;;;;;;483851;246;1191;-39
2022/02/15 06:45:30;;;;;;;;;;;21.30;31.40;;;;;;483778;246;1180;-39
2022/02/15 06:47:31;;;;;;;;;;;21.30;31.40;;;;;;483888;246;1196;-39
2022/02/15 06:49:32;;;;;;;;;;;21.30;31.40;;;;;;484095;246;1100;-39
2022/02/15 06:51:34;;;;;;;;;;;21.30;31.40;;;;;;483770;246;1156;-39
2022/02/15 06:53:35;;;;;;;;;;;21.30;31.30;;;;;;483641;246;1050;-39
2022/02/15 06:55:36;;;;;;;;;;;21.30;31.30;;;;;;483605;246;1098;-39
2022/02/15 06:57:38;;;;;;;;;;;21.30;31.40;;;;;;483598;246;1164;-39
2022/02/15 06:59:39;;;;;;;;;;;21.30;31.30;;;;;;483808;246;1144;-39
2022/02/15 07:01:41;;;;;;;;;;;21.30;31.30;;;;;;483705;243;2195;-39
2022/02/15 07:03:42;;;;;;;;;;;21.30;31.40;;;;;;483578;246;1081;-39
2022/02/15 07:05:43;;;;;;;;;;;21.30;31.40;;;;;;483542;246;1079;-39
2022/02/15 07:07:45;;;;;;;;;;;21.30;31.40;;;;;;483659;246;1269;-39
2022/02/15 07:09:46;;;;;;;;;;;21.30;31.40;;;;;;483600;246;1114;-39
2022/02/15 07:11:47;;;;;;;;;;;21.30;31.40;;;;;;483571;246;1387;-39
2022/02/15 07:13:50;;;;;;;;;;;21.30;31.30;;;;;;483421;246;1112;-39
2022/02/15 07:15:51;;;;;;;;;;;21.30;31.30;;;;;;483383;246;2275;-39
2022/02/15 07:17:52;;;;;;;;;;;21.40;31.30;;;;;;483489;246;1317;-39
2022/02/15 07:19:54;;;;;;;;;;;21.30;31.30;;;;;;483556;246;1244;-39
2022/02/15 07:21:55;;;;;;;;;;;21.30;31.30;;;;;;483795;246;2113;-39
2022/02/15 07:23:56;;;;;;;;;;;21.30;31.30;;;;;;483675;246;1307;-39
2022/02/15 07:25:58;;;;;;;;;;;21.40;31.40;;;;;;483520;246;1490;-39
2022/02/15 07:28:01;;;;;;;;;;;21.30;31.30;;;;;;483705;246;1291;-39
2022/02/15 07:30:01;;;;;;;;;;;21.30;31.40;;;;;;483411;246;1572;-39
2022/02/15 07:32:02;;;;;;;;;;;21.30;31.40;;;;;;483403;246;2230;-39
2022/02/15 07:34:03;;;;;;;;;;;21.30;31.40;;;;;;483664;246;1088;-39
2022/02/15 07:36:05;;;;;;;;;;;21.30;31.50;;;;;;483397;246;1150;-39
2022/02/15 07:38:06;;;;;;;;;;;21.40;31.40;;;;;;483216;246;1252;-39
2022/02/15 07:40:08;;;;;;;;;;;21.40;31.40;;;;;;483225;246;1095;-39
2022/02/15 07:42:09;;;;;;;;;;;21.30;31.40;;;;;;483424;246;2137;-39
2022/02/15 07:44:10;;;;;;;;;;;21.30;31.40;;;;;;483512;246;1090;-39
2022/02/15 07:46:11;;;;;;;;;;;21.30;31.40;;;;;;483451;246;1446;-39
2022/02/15 07:48:13;;;;;;;;;;;21.40;31.40;;;;;;483622;246;1231;-39
2022/02/15 07:50:14;;;;;;;;;;;21.40;31.40;;;;;;483334;246;1769;-39
2022/02/15 07:52:16;;;;;;;;;;;21.40;31.40;;;;;;483226;246;1324;-39
2022/02/15 07:54:18;;;;;;;;;;;21.30;31.40;;;;;;483387;246;1127;-39
2022/02/15 07:56:18;;;;;;;;;;;21.30;31.50;;;;;;483419;245;2016;-39
2022/02/15 07:58:19;;;;;;;;;;;21.30;31.60;;;;;;483619;246;1180;-39
2022/02/15 08:00:21;;;;;;;;;;;21.30;31.50;;;;;;483421;246;1251;-39
2022/02/15 08:02:22;;;;;;;;;;;21.30;31.50;;;;;;483310;246;2187;-39
2022/02/15 08:04:23;;;;;;;;;;;21.30;31.60;;;;;;483428;246;1105;-39
2022/02/15 08:06:25;;;;;;;;;;;21.40;31.60;;;;;;483370;243;1268;-39
2022/02/15 08:08:26;;;;;;;;;;;21.40;31.50;;;;;;483374;246;1078;-39
2022/02/15 08:10:28;;;;;;;;;;;21.30;31.50;;;;;;483487;246;1268;-39
2022/02/15 08:12:30;;;;;;;;;;;21.40;31.60;;;;;;483352;246;1095;-39
2022/02/15 08:14:31;;;;;;;;;;;21.40;31.60;;;;;;483611;246;1173;-39
2022/02/15 08:16:32;;;;;;;;;;;21.40;31.50;;;;;;483297;246;1325;-39
2022/02/15 08:18:36;;;;;;;;;;;21.40;31.50;;;;;;483360;246;1247;-39
2022/02/15 08:20:36;;;;;;;;;;;21.40;31.50;;;;;;483102;245;2262;-39
2022/02/15 08:22:36;;;;;;;;;;;21.40;31.50;;;;;;483145;246;2188;-39
2022/02/15 08:24:38;;;;;;;;;;;21.40;31.50;;;;;;483153;246;1094;-39
2022/02/15 08:26:39;;;;;;;;;;;21.40;31.60;;;;;;483194;246;1284;-39
2022/02/15 08:28:43;;;;;;;;;;;21.40;31.70;;;;;;483968;246;1066;-39
2022/02/15 08:30:41;;;;;;;;;;;21.40;31.60;;;;;;482826;246;2248;-39
2022/02/15 08:32:43;;;;;;;;;;;21.40;31.50;;;;;;483314;246;1253;-39
2022/02/15 08:34:45;;;;;;;;;;;21.40;31.60;;;;;;483350;246;1238;-39
2022/02/15 08:36:45;;;;;;;;;;;21.40;31.60;;;;;;483436;245;2381;-39
2022/02/15 08:38:47;;;;;;;;;;;21.40;31.60;;;;;;483084;246;1258;-39
2022/02/15 08:40:48;;;;;;;;;;;21.40;31.70;;;;;;483089;246;2133;-39
2022/02/15 08:42:49;;;;;;;;;;;21.40;31.80;;;;;;483953;246;1201;-39
2022/02/15 08:44:53;;;;;;;;;;;21.40;31.70;;;;;;483226;246;1223;-39
2022/02/15 08:46:55;;;;;;;;;;;21.40;31.70;;;;;;482948;246;2233;-39
2022/02/15 08:48:53;;;;;;;;;;;21.40;31.70;;;;;;483087;245;1407;-39
2022/02/15 08:50:55;;;;;;;;;;;21.30;31.70;;;;;;483280;246;1338;-39
2022/02/15 08:52:56;;;;;;;;;;;21.30;31.70;;;;;;483449;246;1179;-39
2022/02/15 08:54:57;;;;;;;;;;;21.40;31.80;;;;;;483339;246;1132;-39
2022/02/15 08:56:59;;;;;;;;;;;21.30;31.80;;;;;;483137;246;1469;-39
2022/02/15 08:59:00;;;;;;;;;;;21.40;31.80;;;;;;483375;246;1188;-39
2022/02/15 09:01:02;;;;;;;;;;;21.40;31.80;;;;;;483305;246;2192;-39
2022/02/15 09:03:03;;;;;;;;;;;21.40;31.70;;;;;;483163;246;2035;-39
2022/02/15 09:05:04;;;;;;;;;;;21.40;31.80;;;;;;483123;246;1172;-39
2022/02/15 09:07:06;;;;;;;;;;;21.40;31.80;;;;;;483104;246;1185;-39
2022/02/15 09:09:07;;;;;;;;;;;21.50;31.80;;;;;;483104;246;1638;-39
2022/02/15 09:11:08;;;;;;;;;;;21.50;31.80;;;;;;483042;246;1213;-39
2022/02/15 09:13:09;;;;;;;;;;;21.50;31.90;;;;;;483247;246;1107;-39
2022/02/15 09:15:13;;;;;;;;;;;21.50;31.90;;;;;;483321;246;1472;-39
2022/02/15 09:17:12;;;;;;;;;;;21.50;31.90;;;;;;483104;245;1400;-40
2022/02/15 09:19:13;;;;;;;;;;;21.60;31.90;;;;;;483236;246;1117;-39
2022/02/15 09:21:15;;;;;;;;;;;21.50;31.90;;;;;;483046;246;2192;-39
2022/02/15 09:23:16;;;;;;;;;;;21.50;31.90;;;;;;483506;246;2208;-39
2022/02/15 09:25:17;;;;;;;;;;;21.60;32.00;;;;;;483918;246;916;-39
2022/02/15 09:27:18;;;;;;;;;;;21.50;32.00;;;;;;483915;246;1199;-39
2022/02/15 09:29:20;;;;;;;;;;;21.60;32.00;;;;;;483203;246;1153;-39
2022/02/15 09:31:22;;;;;;;;;;;21.60;31.90;;;;;;483167;246;1211;-39
2022/02/15 09:33:23;;;;;;;;;;;21.60;31.90;;;;;;483344;246;1198;-39
2022/02/15 09:35:24;;;;;;;;;;;21.70;31.80;;;;;;483279;246;1385;-39
2022/02/15 09:37:25;;;;;;;;;;;21.60;31.80;;;;;;483539;246;1234;-39
2022/02/15 09:39:27;;;;;;;;;;;21.70;31.80;;;;;;483818;246;1086;-39
2022/02/15 09:41:33;;;;;;;;;;;21.70;31.80;;;;;;482999;246;2200;-39
2022/02/15 09:43:29;;;;;;;;;;;21.70;31.80;;;;;;483822;245;2045;-39
2022/02/15 09:45:31;;;;;;;;;;;21.70;31.80;;;;;;484105;246;1347;-39
2022/02/15 09:47:32;;;;;;;;;;;21.70;31.80;;;;;;483330;246;1189;-39
2022/02/15 09:49:48;;;;;;;;;;;21.60;31.90;;;;;;483111;246;1170;-39
2022/02/15 09:51:50;;;;;;;;;;;21.70;31.80;;;;;;483135;246;1540;-39
2022/02/15 09:53:51;;;;;;;;;;;21.60;31.80;;;;;;483447;246;1118;-39
2022/02/15 09:55:52;;;;;;;;;;;21.60;31.90;;;;;;483911;242;1159;-39
2022/02/15 09:57:54;;;;;;;;;;;21.60;31.90;;;;;;483949;246;1193;-39
2022/02/15 09:59:55;;;;;;;;;;;21.70;32.00;;;;;;483946;246;867;-39
2022/02/15 10:01:56;;;;;;;;;;;21.60;31.90;;;;;;483740;246;2215;-39
2022/02/15 10:03:58;;;;;;;;;;;21.70;31.90;;;;;;483282;246;1119;-39
2022/02/15 10:06:02;;;;;;;;;;;21.70;31.90;;;;;;483182;243;1204;-39
2022/02/15 10:08:01;;;;;;;;;;;21.60;31.90;;;;;;483269;245;2200;-40
2022/02/15 10:10:03;;;;;;;;;;;21.70;31.90;;;;;;483236;246;1343;-39
2022/02/15 10:12:04;;;;;;;;;;;21.60;31.90;;;;;;483159;246;1403;-39
2022/02/15 10:14:05;;;;;;;;;;;21.60;31.90;;;;;;483135;246;1229;-39
2022/02/15 10:16:06;;;;;;;;;;;21.70;32.00;;;;;;483111;246;1703;-39
2022/02/15 10:18:08;;;;;;;;;;;21.70;31.90;;;;;;483108;246;1349;-39
2022/02/15 10:20:09;;;;;;;;;;;21.70;31.90;;;;;;483114;246;1216;-39
2022/02/15 10:22:10;;;;;;;;;;;21.70;31.90;;;;;;483089;246;2344;-39
2022/02/15 10:24:12;;;;;;;;;;;21.70;31.90;;;;;;483393;246;1267;-39
2022/02/15 10:26:13;;;;;;;;;;;21.70;31.90;;;;;;483271;243;1366;-39
2022/02/15 10:28:14;;;;;;;;;;;21.70;31.90;;;;;;483157;246;1617;-39
2022/02/15 10:30:16;;;;;;;;;;;21.70;31.90;;;;;;483287;246;1147;-40
2022/02/15 10:32:20;;;;;;;;;;;21.70;31.80;;;;;;483237;246;1308;-39
2022/02/15 10:34:18;;;;;;;;;;;21.80;31.80;;;;;;482850;246;2700;-39
2022/02/15 10:36:21;;;;;;;;;;;21.80;31.90;;;;;;483016;246;1329;-39
2022/02/15 10:38:21;;;;;;;;;;;21.80;31.90;;;;;;483376;246;1898;-39
2022/02/15 10:40:22;;;;;;;;;;;21.70;31.80;;;;;;483139;246;1135;-39
2022/02/15 10:42:24;;;;;;;;;;;21.70;31.90;;;;;;483414;246;2192;-39
2022/02/15 10:44:25;;;;;;;;;;;21.70;31.90;;;;;;483246;246;1332;-39
2022/02/15 10:46:28;;;;;;;;;;;21.70;31.90;;;;;;483435;243;1453;-39
2022/02/15 10:48:28;;;;;;;;;;;21.70;31.90;;;;;;483343;246;2144;-39
2022/02/15 10:50:30;;;;;;;;;;;21.70;32.00;;;;;;483093;246;1256;-39
2022/02/15 10:52:30;;;;;;;;;;;21.80;32.00;;;;;;483144;245;1910;-39
2022/02/15 10:54:32;;;;;;;;;;;21.80;31.90;;;;;;483238;246;1240;-39
2022/02/15 10:56:33;;;;;;;;;;;21.80;31.90;;;;;;483221;246;1349;-39
2022/02/15 10:58:34;;;;;;;;;;;21.80;32.00;;;;;;483313;246;1299;-39
2022/02/15 11:00:36;;;;;;;;;;;21.80;32.00;;;;;;483338;246;1252;-39
2022/02/15 11:02:37;;;;;;;;;;;21.80;32.10;;;;;;483246;246;2117;-39
2022/02/15 11:04:39;;;;;;;;;;;21.80;32.10;;;;;;483400;246;1059;-39
2022/02/15 11:06:40;;;;;;;;;;;21.90;32.10;;;;;;483446;246;1342;-39
2022/02/15 11:08:41;;;;;;;;;;;21.80;32.10;;;;;;483334;246;1221;-39
2022/02/15 11:10:45;;;;;;;;;;;21.80;32.10;;;;;;483289;246;1259;-39
2022/02/15 11:12:44;;;;;;;;;;;21.80;32.10;;;;;;483209;246;2400;-39
2022/02/15 11:14:45;;;;;;;;;;;21.80;32.10;;;;;;483259;246;1118;-39
2022/02/15 11:16:47;;;;;;;;;;;21.80;32.10;;;;;;483158;246;1198;-39
2022/02/15 11:18:48;;;;;;;;;;;21.80;32.10;;;;;;483184;246;1197;-39
2022/02/15 11:20:56;;;;;;;;;;;21.80;32.10;;;;;;483326;246;1209;-40
2022/02/15 11:22:53;;;;;;;;;;;21.80;32.10;;;;;;482949;245;2188;-39
2022/02/15 11:24:56;;;;;;;;;;;21.80;32.10;;;;;;483089;246;1077;-39
2022/02/15 11:26:56;;;;;;;;;;;21.80;32.10;;;;;;482994;246;2709;-39
2022/02/15 11:28:57;;;;;;;;;;;21.80;32.10;;;;;;483247;246;1158;-39
2022/02/15 11:31:00;;;;;;;;;;;21.80;32.10;;;;;;483264;246;1216;-39
2022/02/15 11:33:01;;;;;;;;;;;21.80;32.10;;;;;;483090;246;1279;-39
2022/02/15 11:35:03;;;;;;;;;;;21.80;32.10;;;;;;483209;246;1200;-39
2022/02/15 11:37:03;;;;;;;;;;;21.80;32.00;;;;;;483265;246;2455;-39
2022/02/15 11:39:08;;;;;;;;;;;21.80;32.10;;;;;;483467;246;1081;-39
2022/02/15 11:41:06;;;;;;;;;;;21.80;32.20;;;;;;483005;246;2167;-39
2022/02/15 11:43:07;;;;;;;;;;;21.80;32.20;;;;;;483162;246;2133;-39
2022/02/15 11:45:08;;;;;;;;;;;21.80;32.30;;;;;;483254;246;1354;-39
2022/02/15 11:47:10;;;;;;;;;;;21.90;32.50;;;;;;483100;246;1260;-39
2022/02/15 11:49:11;;;;;;;;;;;21.90;32.30;;;;;;483349;246;1313;-39
2022/02/15 11:51:12;;;;;;;;;;;21.80;32.30;;;;;;483271;246;1258;-39
2022/02/15 11:53:14;;;;;;;;;;;21.80;32.40;;;;;;483734;246;1105;-39
2022/02/15 11:55:16;;;;;;;;;;;21.80;32.50;;;;;;483512;246;1268;-40
2022/02/15 11:57:17;;;;;;;;;;;21.90;32.50;;;;;;483631;245;2077;-39
2022/02/15 11:59:18;;;;;;;;;;;21.80;32.50;;;;;;483373;246;1158;-39
2022/02/15 12:01:19;;;;;;;;;;;21.90;32.50;;;;;;483250;243;1387;-39
2022/02/15 12:03:21;;;;;;;;;;;21.80;32.50;;;;;;483118;246;2185;-39
2022/02/15 12:05:22;;;;;;;;;;;21.80;32.60;;;;;;483276;246;1091;-39